sensor_id;sensor_type;location;lat;lon;timestamp;temperature;humidity
74364;DHT22;62797;49.740;10.154;2023-03-01T00:01:21;-2.50;51.80
74364;DHT22;62797;49.740;10.154;2023-03-01T00:03:47;-2.50;52.00
74364;DHT22;62797;49.740;10.154;2023-03-01T00:06:13;-2.50;52.40
74364;DHT22;62797;49.740;10.154;2023-03-01T00:08:39;-2.50;52.10
74364;DHT22;62797;49.740;10.154;2023-03-01T00:11:26;-2.50;52.00
74364;DHT22;62797;49.740;10.154;2023-03-01T00:13:55;-2.50;52.20
74364;DHT22;62797;49.740;10.154;2023-03-01T00:16:29;-2.60;53.30
74364;DHT22;62797;49.740;10.154;2023-03-01T00:18:56;-2.60;53.50
74364;DHT22;62797;49.740;10.154;2023-03-01T00:21:22;-2.60;53.50
74364;DHT22;62797;49.740;10.154;2023-03-01T00:23:48;-2.70;52.90
74364;DHT22;62797;49.740;10.154;2023-03-01T00:26:15;-2.70;52.80
74364;DHT22;62797;49.740;10.154;2023-03-01T00:28:42;-2.70;52.60
74364;DHT22;62797;49.740;10.154;2023-03-01T00:31:13;-2.70;53.20
74364;DHT22;62797;49.740;10.154;2023-03-01T00:33:40;-2.70;53.50
74364;DHT22;62797;49.740;10.154;2023-03-01T00:36:06;-2.70;52.60
74364;DHT22;62797;49.740;10.154;2023-03-01T00:38:39;-2.70;53.50
74364;DHT22;62797;49.740;10.154;2023-03-01T00:41:12;-2.70;53.30
74364;DHT22;62797;49.740;10.154;2023-03-01T00:43:42;-2.70;52.80
74364;DHT22;62797;49.740;10.154;2023-03-01T00:46:13;-2.70;53.40
74364;DHT22;62797;49.740;10.154;2023-03-01T00:48:39;-2.70;53.00
74364;DHT22;62797;49.740;10.154;2023-03-01T00:51:16;-2.70;53.90
74364;DHT22;62797;49.740;10.154;2023-03-01T00:53:42;-2.80;55.00
74364;DHT22;62797;49.740;10.154;2023-03-01T00:56:10;-2.80;54.70
74364;DHT22;62797;49.740;10.154;2023-03-01T00:58:36;-2.80;53.80
74364;DHT22;62797;49.740;10.154;2023-03-01T01:01:10;-2.70;52.70
74364;DHT22;62797;49.740;10.154;2023-03-01T01:03:54;-2.70;52.50
74364;DHT22;62797;49.740;10.154;2023-03-01T01:06:29;-2.70;52.70
74364;DHT22;62797;49.740;10.154;2023-03-01T01:08:56;-2.80;53.10
74364;DHT22;62797;49.740;10.154;2023-03-01T01:11:22;-2.70;52.60
74364;DHT22;62797;49.740;10.154;2023-03-01T01:13:49;-2.80;54.00
74364;DHT22;62797;49.740;10.154;2023-03-01T01:16:20;-2.90;54.50
74364;DHT22;62797;49.740;10.154;2023-03-01T01:18:46;-2.90;55.40
74364;DHT22;62797;49.740;10.154;2023-03-01T01:21:14;-2.90;54.90
74364;DHT22;62797;49.740;10.154;2023-03-01T01:23:42;-2.90;54.30
74364;DHT22;62797;49.740;10.154;2023-03-01T01:26:32;-2.90;53.80
74364;DHT22;62797;49.740;10.154;2023-03-01T01:28:59;-2.90;54.60
74364;DHT22;62797;49.740;10.154;2023-03-01T01:31:27;-3.00;54.90
74364;DHT22;62797;49.740;10.154;2023-03-01T01:33:54;-3.00;55.10
74364;DHT22;62797;49.740;10.154;2023-03-01T01:36:20;-3.00;55.00
74364;DHT22;62797;49.740;10.154;2023-03-01T01:38:46;-3.10;54.30
74364;DHT22;62797;49.740;10.154;2023-03-01T01:41:12;-3.10;53.90
74364;DHT22;62797;49.740;10.154;2023-03-01T01:43:41;-3.20;55.40
74364;DHT22;62797;49.740;10.154;2023-03-01T01:46:21;-3.10;54.20
74364;DHT22;62797;49.740;10.154;2023-03-01T01:48:58;-3.10;54.00
74364;DHT22;62797;49.740;10.154;2023-03-01T01:51:28;-3.10;54.40
74364;DHT22;62797;49.740;10.154;2023-03-01T01:54:12;-3.00;54.20
74364;DHT22;62797;49.740;10.154;2023-03-01T01:56:42;-3.10;54.10
74364;DHT22;62797;49.740;10.154;2023-03-01T01:59:09;-3.10;54.80
74364;DHT22;62797;49.740;10.154;2023-03-01T02:01:37;-3.10;54.20
74364;DHT22;62797;49.740;10.154;2023-03-01T02:04:03;-3.10;53.90
74364;DHT22;62797;49.740;10.154;2023-03-01T02:06:39;-3.10;54.50
74364;DHT22;62797;49.740;10.154;2023-03-01T02:09:13;-3.10;53.30
74364;DHT22;62797;49.740;10.154;2023-03-01T02:11:39;-3.10;52.60
74364;DHT22;62797;49.740;10.154;2023-03-01T02:14:05;-3.10;53.40
74364;DHT22;62797;49.740;10.154;2023-03-01T02:16:31;-3.20;53.10
74364;DHT22;62797;49.740;10.154;2023-03-01T02:18:58;-3.20;53.70
74364;DHT22;62797;49.740;10.154;2023-03-01T02:21:34;-3.20;53.30
74364;DHT22;62797;49.740;10.154;2023-03-01T02:27:02;-3.30;53.30
74364;DHT22;62797;49.740;10.154;2023-03-01T02:29:28;-3.30;53.60
74364;DHT22;62797;49.740;10.154;2023-03-01T02:31:56;-3.30;53.60
74364;DHT22;62797;49.740;10.154;2023-03-01T02:34:25;-3.40;54.40
74364;DHT22;62797;49.740;10.154;2023-03-01T02:37:05;-3.30;54.00
74364;DHT22;62797;49.740;10.154;2023-03-01T02:39:37;-3.30;53.80
74364;DHT22;62797;49.740;10.154;2023-03-01T02:42:11;-3.30;53.80
74364;DHT22;62797;49.740;10.154;2023-03-01T02:44:38;-3.30;53.20
74364;DHT22;62797;49.740;10.154;2023-03-01T02:47:04;-3.30;52.90
74364;DHT22;62797;49.740;10.154;2023-03-01T02:49:33;-3.40;53.60
74364;DHT22;62797;49.740;10.154;2023-03-01T02:52:34;-3.40;53.70
74364;DHT22;62797;49.740;10.154;2023-03-01T02:55:09;-3.40;53.50
74364;DHT22;62797;49.740;10.154;2023-03-01T02:57:39;-3.40;54.10
74364;DHT22;62797;49.740;10.154;2023-03-01T03:00:09;-3.40;54.50
74364;DHT22;62797;49.740;10.154;2023-03-01T03:02:36;-3.50;54.30
74364;DHT22;62797;49.740;10.154;2023-03-01T03:05:13;-3.40;54.50
74364;DHT22;62797;49.740;10.154;2023-03-01T03:07:41;-3.50;54.70
74364;DHT22;62797;49.740;10.154;2023-03-01T03:10:20;-3.50;55.60
74364;DHT22;62797;49.740;10.154;2023-03-01T03:12:52;-3.50;55.50
74364;DHT22;62797;49.740;10.154;2023-03-01T03:15:18;-3.50;55.40
74364;DHT22;62797;49.740;10.154;2023-03-01T03:17:46;-3.50;55.00
74364;DHT22;62797;49.740;10.154;2023-03-01T03:20:13;-3.40;54.50
74364;DHT22;62797;49.740;10.154;2023-03-01T03:22:45;-3.50;53.70
74364;DHT22;62797;49.740;10.154;2023-03-01T03:25:11;-3.50;53.90
74364;DHT22;62797;49.740;10.154;2023-03-01T03:27:38;-3.50;54.10
74364;DHT22;62797;49.740;10.154;2023-03-01T03:30:05;-3.60;55.00
74364;DHT22;62797;49.740;10.154;2023-03-01T03:32:35;-3.60;54.60
74364;DHT22;62797;49.740;10.154;2023-03-01T03:35:02;-3.60;54.70
74364;DHT22;62797;49.740;10.154;2023-03-01T03:37:34;-3.60;54.70
74364;DHT22;62797;49.740;10.154;2023-03-01T03:40:18;-3.60;55.80
74364;DHT22;62797;49.740;10.154;2023-03-01T03:42:44;-3.60;54.90
74364;DHT22;62797;49.740;10.154;2023-03-01T03:45:10;-3.60;54.10
74364;DHT22;62797;49.740;10.154;2023-03-01T03:47:35;-3.70;54.80
74364;DHT22;62797;49.740;10.154;2023-03-01T03:50:01;-3.70;54.40
74364;DHT22;62797;49.740;10.154;2023-03-01T03:52:26;-3.70;54.60
74364;DHT22;62797;49.740;10.154;2023-03-01T03:54:52;-3.70;56.40
74364;DHT22;62797;49.740;10.154;2023-03-01T03:57:17;-3.70;57.00
74364;DHT22;62797;49.740;10.154;2023-03-01T03:59:43;-3.70;57.20
74364;DHT22;62797;49.740;10.154;2023-03-01T04:02:09;-3.70;55.60
74364;DHT22;62797;49.740;10.154;2023-03-01T04:04:34;-3.60;55.60
74364;DHT22;62797;49.740;10.154;2023-03-01T04:07:00;-3.70;55.20
74364;DHT22;62797;49.740;10.154;2023-03-01T04:09:26;-3.80;54.80
74364;DHT22;62797;49.740;10.154;2023-03-01T04:11:51;-3.80;55.00
74364;DHT22;62797;49.740;10.154;2023-03-01T04:14:17;-3.90;55.90
74364;DHT22;62797;49.740;10.154;2023-03-01T04:16:45;-4.00;56.60
74364;DHT22;62797;49.740;10.154;2023-03-01T04:19:10;-4.00;57.60
74364;DHT22;62797;49.740;10.154;2023-03-01T04:21:36;-4.00;58.00
74364;DHT22;62797;49.740;10.154;2023-03-01T04:24:01;-4.00;57.70
74364;DHT22;62797;49.740;10.154;2023-03-01T04:26:29;-4.00;56.90
74364;DHT22;62797;49.740;10.154;2023-03-01T04:28:54;-4.00;57.70
74364;DHT22;62797;49.740;10.154;2023-03-01T04:31:20;-3.90;57.30
74364;DHT22;62797;49.740;10.154;2023-03-01T04:36:13;-3.90;56.70
74364;DHT22;62797;49.740;10.154;2023-03-01T04:38:40;-4.00;57.10
74364;DHT22;62797;49.740;10.154;2023-03-01T04:41:08;-4.00;56.90
74364;DHT22;62797;49.740;10.154;2023-03-01T04:43:35;-4.00;57.30
74364;DHT22;62797;49.740;10.154;2023-03-01T04:46:06;-3.90;56.80
74364;DHT22;62797;49.740;10.154;2023-03-01T04:48:35;-4.00;55.50
74364;DHT22;62797;49.740;10.154;2023-03-01T04:51:01;-4.00;55.60
74364;DHT22;62797;49.740;10.154;2023-03-01T04:53:27;-4.10;56.00
74364;DHT22;62797;49.740;10.154;2023-03-01T04:55:55;-4.10;55.60
74364;DHT22;62797;49.740;10.154;2023-03-01T04:58:22;-4.10;56.60
74364;DHT22;62797;49.740;10.154;2023-03-01T05:00:48;-4.10;56.10
74364;DHT22;62797;49.740;10.154;2023-03-01T05:03:13;-4.10;55.80
74364;DHT22;62797;49.740;10.154;2023-03-01T05:05:44;-4.10;56.30
74364;DHT22;62797;49.740;10.154;2023-03-01T05:08:11;-4.10;55.90
74364;DHT22;62797;49.740;10.154;2023-03-01T05:10:50;-4.10;56.00
74364;DHT22;62797;49.740;10.154;2023-03-01T05:13:16;-4.10;56.00
74364;DHT22;62797;49.740;10.154;2023-03-01T05:15:57;-4.10;55.40
74364;DHT22;62797;49.740;10.154;2023-03-01T05:18:24;-4.00;56.20
74364;DHT22;62797;49.740;10.154;2023-03-01T05:21:06;-4.10;55.90
74364;DHT22;62797;49.740;10.154;2023-03-01T05:23:33;-4.10;56.50
74364;DHT22;62797;49.740;10.154;2023-03-01T05:26:00;-4.00;55.60
74364;DHT22;62797;49.740;10.154;2023-03-01T05:28:27;-4.10;55.80
74364;DHT22;62797;49.740;10.154;2023-03-01T05:30:54;-4.20;57.40
74364;DHT22;62797;49.740;10.154;2023-03-01T05:33:19;-4.20;58.30
74364;DHT22;62797;49.740;10.154;2023-03-01T05:35:47;-4.20;58.10
74364;DHT22;62797;49.740;10.154;2023-03-01T05:38:14;-4.20;58.60
74364;DHT22;62797;49.740;10.154;2023-03-01T05:40:40;-4.20;58.30
74364;DHT22;62797;49.740;10.154;2023-03-01T05:43:06;-4.20;58.70
74364;DHT22;62797;49.740;10.154;2023-03-01T05:45:32;-4.20;57.40
74364;DHT22;62797;49.740;10.154;2023-03-01T05:47:58;-4.10;57.00
74364;DHT22;62797;49.740;10.154;2023-03-01T05:50:26;-4.10;55.80
74364;DHT22;62797;49.740;10.154;2023-03-01T05:52:57;-4.10;55.40
74364;DHT22;62797;49.740;10.154;2023-03-01T05:55:23;-4.20;55.40
74364;DHT22;62797;49.740;10.154;2023-03-01T05:57:51;-4.10;56.20
74364;DHT22;62797;49.740;10.154;2023-03-01T06:00:19;-4.10;55.60
74364;DHT22;62797;49.740;10.154;2023-03-01T06:02:48;-4.20;55.60
74364;DHT22;62797;49.740;10.154;2023-03-01T06:05:13;-4.20;56.00
74364;DHT22;62797;49.740;10.154;2023-03-01T06:07:40;-4.20;56.80
74364;DHT22;62797;49.740;10.154;2023-03-01T06:10:07;-4.20;57.50
74364;DHT22;62797;49.740;10.154;2023-03-01T06:12:34;-4.20;58.00
74364;DHT22;62797;49.740;10.154;2023-03-01T06:15:00;-4.20;58.00
74364;DHT22;62797;49.740;10.154;2023-03-01T06:17:29;-4.10;57.80
74364;DHT22;62797;49.740;10.154;2023-03-01T06:19:54;-4.10;58.50
74364;DHT22;62797;49.740;10.154;2023-03-01T06:22:20;-4.10;57.00
74364;DHT22;62797;49.740;10.154;2023-03-01T06:24:46;-4.10;56.20
74364;DHT22;62797;49.740;10.154;2023-03-01T06:27:11;-4.00;58.20
74364;DHT22;62797;49.740;10.154;2023-03-01T06:29:37;-3.90;56.90
74364;DHT22;62797;49.740;10.154;2023-03-01T06:32:03;-3.90;58.80
74364;DHT22;62797;49.740;10.154;2023-03-01T06:34:29;-3.90;58.60
74364;DHT22;62797;49.740;10.154;2023-03-01T06:36:54;-3.80;58.40
74364;DHT22;62797;49.740;10.154;2023-03-01T06:39:20;-3.80;58.30
74364;DHT22;62797;49.740;10.154;2023-03-01T06:41:46;-3.70;57.00
74364;DHT22;62797;49.740;10.154;2023-03-01T06:44:11;-3.70;57.50
74364;DHT22;62797;49.740;10.154;2023-03-01T06:46:38;-3.60;56.60
74364;DHT22;62797;49.740;10.154;2023-03-01T06:49:03;-3.60;56.40
74364;DHT22;62797;49.740;10.154;2023-03-01T06:51:33;-3.50;56.40
74364;DHT22;62797;49.740;10.154;2023-03-01T06:53:58;-3.50;56.50
74364;DHT22;62797;49.740;10.154;2023-03-01T06:56:24;-3.40;57.10
74364;DHT22;62797;49.740;10.154;2023-03-01T06:58:50;-3.40;56.80
74364;DHT22;62797;49.740;10.154;2023-03-01T07:01:15;-3.40;56.00
74364;DHT22;62797;49.740;10.154;2023-03-01T07:03:41;-3.30;55.60
74364;DHT22;62797;49.740;10.154;2023-03-01T07:06:09;-3.30;55.40
74364;DHT22;62797;49.740;10.154;2023-03-01T07:08:35;-3.20;56.00
74364;DHT22;62797;49.740;10.154;2023-03-01T07:11:00;-3.20;56.10
74364;DHT22;62797;49.740;10.154;2023-03-01T07:13:27;-3.10;55.90
74364;DHT22;62797;49.740;10.154;2023-03-01T07:15:53;-3.00;55.80
74364;DHT22;62797;49.740;10.154;2023-03-01T07:18:19;-2.90;55.60
74364;DHT22;62797;49.740;10.154;2023-03-01T07:20:45;-2.80;55.20
74364;DHT22;62797;49.740;10.154;2023-03-01T07:23:10;-2.70;54.10
74364;DHT22;62797;49.740;10.154;2023-03-01T07:25:36;-2.60;54.30
74364;DHT22;62797;49.740;10.154;2023-03-01T07:28:02;-2.50;53.90
74364;DHT22;62797;49.740;10.154;2023-03-01T07:30:27;-2.40;53.10
74364;DHT22;62797;49.740;10.154;2023-03-01T07:32:55;-2.30;52.80
74364;DHT22;62797;49.740;10.154;2023-03-01T07:35:21;-2.20;52.80
74364;DHT22;62797;49.740;10.154;2023-03-01T07:37:47;-2.20;52.50
74364;DHT22;62797;49.740;10.154;2023-03-01T07:40:13;-2.20;52.00
74364;DHT22;62797;49.740;10.154;2023-03-01T07:42:38;-2.10;51.80
74364;DHT22;62797;49.740;10.154;2023-03-01T07:45:05;-2.00;51.10
74364;DHT22;62797;49.740;10.154;2023-03-01T07:47:32;-1.90;50.80
74364;DHT22;62797;49.740;10.154;2023-03-01T07:49:57;-1.80;50.60
74364;DHT22;62797;49.740;10.154;2023-03-01T07:52:23;-1.70;50.00
74364;DHT22;62797;49.740;10.154;2023-03-01T07:54:49;-1.60;49.70
74364;DHT22;62797;49.740;10.154;2023-03-01T07:57:14;-1.50;49.30
74364;DHT22;62797;49.740;10.154;2023-03-01T07:59:40;-1.50;48.60
74364;DHT22;62797;49.740;10.154;2023-03-01T08:02:06;-1.40;48.70
74364;DHT22;62797;49.740;10.154;2023-03-01T08:04:32;-1.30;48.00
74364;DHT22;62797;49.740;10.154;2023-03-01T08:06:58;-1.10;48.30
74364;DHT22;62797;49.740;10.154;2023-03-01T08:09:24;-1.00;48.30
74364;DHT22;62797;49.740;10.154;2023-03-01T08:11:50;-1.00;48.50
74364;DHT22;62797;49.740;10.154;2023-03-01T08:14:16;-1.00;47.50
74364;DHT22;62797;49.740;10.154;2023-03-01T08:16:42;-0.90;48.50
74364;DHT22;62797;49.740;10.154;2023-03-01T08:19:10;-0.90;47.50
74364;DHT22;62797;49.740;10.154;2023-03-01T08:21:35;-0.80;47.70
74364;DHT22;62797;49.740;10.154;2023-03-01T08:24:05;-0.60;47.50
74364;DHT22;62797;49.740;10.154;2023-03-01T08:26:31;-0.60;46.60
74364;DHT22;62797;49.740;10.154;2023-03-01T08:28:57;-0.50;46.60
74364;DHT22;62797;49.740;10.154;2023-03-01T08:31:32;-0.40;45.30
74364;DHT22;62797;49.740;10.154;2023-03-01T08:34:02;-0.30;45.40
74364;DHT22;62797;49.740;10.154;2023-03-01T08:36:31;-0.20;43.90
74364;DHT22;62797;49.740;10.154;2023-03-01T08:38:58;-0.10;43.50
74364;DHT22;62797;49.740;10.154;2023-03-01T08:41:25;0.10;43.20
74364;DHT22;62797;49.740;10.154;2023-03-01T08:43:51;0.20;42.10
74364;DHT22;62797;49.740;10.154;2023-03-01T08:46:16;0.30;42.20
74364;DHT22;62797;49.740;10.154;2023-03-01T08:48:42;0.30;42.40
74364;DHT22;62797;49.740;10.154;2023-03-01T08:51:10;0.50;41.80
74364;DHT22;62797;49.740;10.154;2023-03-01T08:53:36;0.60;41.40
74364;DHT22;62797;49.740;10.154;2023-03-01T08:56:02;0.70;40.80
74364;DHT22;62797;49.740;10.154;2023-03-01T08:58:28;0.80;39.90
74364;DHT22;62797;49.740;10.154;2023-03-01T09:00:54;0.90;39.80
74364;DHT22;62797;49.740;10.154;2023-03-01T09:03:22;1.00;38.80
74364;DHT22;62797;49.740;10.154;2023-03-01T09:05:47;1.00;39.30
74364;DHT22;62797;49.740;10.154;2023-03-01T09:08:18;1.10;38.80
74364;DHT22;62797;49.740;10.154;2023-03-01T09:10:44;1.20;37.90
74364;DHT22;62797;49.740;10.154;2023-03-01T09:13:09;1.30;37.20
74364;DHT22;62797;49.740;10.154;2023-03-01T09:15:38;1.40;37.20
74364;DHT22;62797;49.740;10.154;2023-03-01T09:18:04;1.60;36.10
74364;DHT22;62797;49.740;10.154;2023-03-01T09:20:31;1.70;35.70
74364;DHT22;62797;49.740;10.154;2023-03-01T09:22:57;1.90;33.60
74364;DHT22;62797;49.740;10.154;2023-03-01T09:25:23;1.90;33.10
74364;DHT22;62797;49.740;10.154;2023-03-01T09:27:53;2.00;31.70
74364;DHT22;62797;49.740;10.154;2023-03-01T09:30:19;2.10;32.40
74364;DHT22;62797;49.740;10.154;2023-03-01T09:32:45;2.30;31.60
74364;DHT22;62797;49.740;10.154;2023-03-01T09:35:11;2.30;31.10
74364;DHT22;62797;49.740;10.154;2023-03-01T09:37:37;2.40;30.70
74364;DHT22;62797;49.740;10.154;2023-03-01T09:40:04;2.50;30.70
74364;DHT22;62797;49.740;10.154;2023-03-01T09:42:33;2.60;30.00
74364;DHT22;62797;49.740;10.154;2023-03-01T09:45:04;2.70;30.00
74364;DHT22;62797;49.740;10.154;2023-03-01T09:47:35;2.80;30.00
74364;DHT22;62797;49.740;10.154;2023-03-01T09:50:11;3.00;28.60
74364;DHT22;62797;49.740;10.154;2023-03-01T09:53:02;3.10;27.60
74364;DHT22;62797;49.740;10.154;2023-03-01T09:55:37;3.20;27.60
74364;DHT22;62797;49.740;10.154;2023-03-01T10:03:43;3.50;27.00
74364;DHT22;62797;49.740;10.154;2023-03-01T10:06:15;3.50;27.10
74364;DHT22;62797;49.740;10.154;2023-03-01T10:11:35;3.70;25.30
74364;DHT22;62797;49.740;10.154;2023-03-01T10:19:37;4.10;25.70
74364;DHT22;62797;49.740;10.154;2023-03-01T10:22:27;4.10;24.70
74364;DHT22;62797;49.740;10.154;2023-03-01T10:24:58;4.30;24.20
74364;DHT22;62797;49.740;10.154;2023-03-01T10:27:29;4.40;24.40
74364;DHT22;62797;49.740;10.154;2023-03-01T10:30:19;4.40;24.40
74364;DHT22;62797;49.740;10.154;2023-03-01T10:32:46;4.50;24.60
74364;DHT22;62797;49.740;10.154;2023-03-01T10:35:26;4.60;23.90
74364;DHT22;62797;49.740;10.154;2023-03-01T10:38:04;4.90;23.10
74364;DHT22;62797;49.740;10.154;2023-03-01T10:40:30;5.00;23.20
74364;DHT22;62797;49.740;10.154;2023-03-01T10:43:00;5.00;23.30
74364;DHT22;62797;49.740;10.154;2023-03-01T10:45:36;5.10;23.10
74364;DHT22;62797;49.740;10.154;2023-03-01T10:48:08;5.10;23.00
74364;DHT22;62797;49.740;10.154;2023-03-01T10:50:36;5.20;23.40
74364;DHT22;62797;49.740;10.154;2023-03-01T10:53:04;5.20;23.10
74364;DHT22;62797;49.740;10.154;2023-03-01T10:55:32;5.30;23.50
74364;DHT22;62797;49.740;10.154;2023-03-01T10:58:19;5.50;22.80
74364;DHT22;62797;49.740;10.154;2023-03-01T11:00:59;5.50;21.90
74364;DHT22;62797;49.740;10.154;2023-03-01T11:03:34;5.60;22.50
74364;DHT22;62797;49.740;10.154;2023-03-01T11:13:35;6.10;21.30
74364;DHT22;62797;49.740;10.154;2023-03-01T11:16:03;6.40;21.50
74364;DHT22;62797;49.740;10.154;2023-03-01T11:18:31;6.80;22.00
74364;DHT22;62797;49.740;10.154;2023-03-01T11:20:58;7.40;21.20
74364;DHT22;62797;49.740;10.154;2023-03-01T11:23:28;7.90;19.80
74364;DHT22;62797;49.740;10.154;2023-03-01T11:26:05;7.90;18.00
74364;DHT22;62797;49.740;10.154;2023-03-01T11:28:32;8.30;20.20
74364;DHT22;62797;49.740;10.154;2023-03-01T11:31:09;8.60;19.10
74364;DHT22;62797;49.740;10.154;2023-03-01T11:38:50;9.20;16.40
74364;DHT22;62797;49.740;10.154;2023-03-01T11:41:45;9.40;17.40
74364;DHT22;62797;49.740;10.154;2023-03-01T11:44:18;9.60;16.70
74364;DHT22;62797;49.740;10.154;2023-03-01T11:52:09;10.30;15.20
74364;DHT22;62797;49.740;10.154;2023-03-01T11:57:43;10.70;15.40
74364;DHT22;62797;49.740;10.154;2023-03-01T12:00:19;10.80;14.40
74364;DHT22;62797;49.740;10.154;2023-03-01T12:11:46;11.20;12.20
74364;DHT22;62797;49.740;10.154;2023-03-01T12:23:29;11.60;12.70
74364;DHT22;62797;49.740;10.154;2023-03-01T12:37:58;12.60;11.20
74364;DHT22;62797;49.740;10.154;2023-03-01T12:43:46;13.10;10.00
74364;DHT22;62797;49.740;10.154;2023-03-01T12:51:33;13.80;9.60
74364;DHT22;62797;49.740;10.154;2023-03-01T12:54:05;13.40;10.40
74364;DHT22;62797;49.740;10.154;2023-03-01T12:56:35;13.40;9.50
74364;DHT22;62797;49.740;10.154;2023-03-01T13:02:01;13.80;10.20
74364;DHT22;62797;49.740;10.154;2023-03-01T13:07:34;14.10;9.70
74364;DHT22;62797;49.740;10.154;2023-03-01T13:12:52;14.50;8.80
74364;DHT22;62797;49.740;10.154;2023-03-01T13:15:28;14.30;8.90
74364;DHT22;62797;49.740;10.154;2023-03-01T13:26:17;14.10;9.70
74364;DHT22;62797;49.740;10.154;2023-03-01T13:28:54;14.20;8.70
74364;DHT22;62797;49.740;10.154;2023-03-01T13:46:47;14.40;9.40
74364;DHT22;62797;49.740;10.154;2023-03-01T13:49:16;15.10;9.50
74364;DHT22;62797;49.740;10.154;2023-03-01T13:51:46;15.70;8.80
74364;DHT22;62797;49.740;10.154;2023-03-01T13:54:12;16.10;8.30
74364;DHT22;62797;49.740;10.154;2023-03-01T13:56:39;16.30;7.20
74364;DHT22;62797;49.740;10.154;2023-03-01T13:59:13;15.90;6.90
74364;DHT22;62797;49.740;10.154;2023-03-01T14:01:39;15.50;7.80
74364;DHT22;62797;49.740;10.154;2023-03-01T14:06:45;15.60;7.00
74364;DHT22;62797;49.740;10.154;2023-03-01T14:09:21;15.70;6.90
74364;DHT22;62797;49.740;10.154;2023-03-01T14:14:52;15.70;6.40
74364;DHT22;62797;49.740;10.154;2023-03-01T14:17:47;15.70;7.00
74364;DHT22;62797;49.740;10.154;2023-03-01T14:20:22;15.80;6.90
74364;DHT22;62797;49.740;10.154;2023-03-01T14:22:51;15.50;7.70
74364;DHT22;62797;49.740;10.154;2023-03-01T14:25:32;15.90;7.40
74364;DHT22;62797;49.740;10.154;2023-03-01T14:28:04;16.10;6.40
74364;DHT22;62797;49.740;10.154;2023-03-01T14:33:04;15.70;7.10
74364;DHT22;62797;49.740;10.154;2023-03-01T14:35:34;15.50;6.10
74364;DHT22;62797;49.740;10.154;2023-03-01T14:38:00;15.60;8.50
74364;DHT22;62797;49.740;10.154;2023-03-01T14:40:34;15.30;7.50
74364;DHT22;62797;49.740;10.154;2023-03-01T14:43:08;15.20;8.10
74364;DHT22;62797;49.740;10.154;2023-03-01T14:45:35;16.00;7.70
74364;DHT22;62797;49.740;10.154;2023-03-01T14:48:04;16.90;7.10
74364;DHT22;62797;49.740;10.154;2023-03-01T14:50:32;16.60;6.40
74364;DHT22;62797;49.740;10.154;2023-03-01T14:53:04;16.40;5.40
74364;DHT22;62797;49.740;10.154;2023-03-01T14:55:37;16.20;6.10
74364;DHT22;62797;49.740;10.154;2023-03-01T14:58:05;16.10;5.90
74364;DHT22;62797;49.740;10.154;2023-03-01T15:00:33;15.90;7.20
74364;DHT22;62797;49.740;10.154;2023-03-01T15:03:11;16.00;6.70
74364;DHT22;62797;49.740;10.154;2023-03-01T15:05:40;16.30;6.70
74364;DHT22;62797;49.740;10.154;2023-03-01T15:08:06;16.50;6.30
74364;DHT22;62797;49.740;10.154;2023-03-01T15:10:35;16.80;6.40
74364;DHT22;62797;49.740;10.154;2023-03-01T15:13:21;17.20;6.20
74364;DHT22;62797;49.740;10.154;2023-03-01T15:15:48;17.30;4.40
74364;DHT22;62797;49.740;10.154;2023-03-01T15:20:46;16.80;5.90
74364;DHT22;62797;49.740;10.154;2023-03-01T15:23:32;16.90;7.00
74364;DHT22;62797;49.740;10.154;2023-03-01T15:25:59;17.20;5.80
74364;DHT22;62797;49.740;10.154;2023-03-01T15:28:39;17.40;5.70
74364;DHT22;62797;49.740;10.154;2023-03-01T15:31:19;17.40;5.40
74364;DHT22;62797;49.740;10.154;2023-03-01T15:33:46;17.70;6.40
74364;DHT22;62797;49.740;10.154;2023-03-01T15:36:39;17.90;4.90
74364;DHT22;62797;49.740;10.154;2023-03-01T15:39:05;17.50;4.30
74364;DHT22;62797;49.740;10.154;2023-03-01T15:41:49;17.00;6.00
74364;DHT22;62797;49.740;10.154;2023-03-01T15:44:26;17.00;5.10
74364;DHT22;62797;49.740;10.154;2023-03-01T15:46:52;16.70;5.30
74364;DHT22;62797;49.740;10.154;2023-03-01T15:49:39;16.40;6.20
74364;DHT22;62797;49.740;10.154;2023-03-01T15:52:13;16.20;5.70
74364;DHT22;62797;49.740;10.154;2023-03-01T15:54:41;16.10;6.00
74364;DHT22;62797;49.740;10.154;2023-03-01T15:57:13;15.60;6.00
74364;DHT22;62797;49.740;10.154;2023-03-01T15:59:41;15.40;6.50
74364;DHT22;62797;49.740;10.154;2023-03-01T16:02:11;15.10;7.60
74364;DHT22;62797;49.740;10.154;2023-03-01T16:04:38;15.00;6.90
74364;DHT22;62797;49.740;10.154;2023-03-01T16:07:05;14.90;8.50
74364;DHT22;62797;49.740;10.154;2023-03-01T16:09:31;14.80;7.40
74364;DHT22;62797;49.740;10.154;2023-03-01T16:11:58;14.50;8.20
74364;DHT22;62797;49.740;10.154;2023-03-01T16:14:23;14.60;8.30
74364;DHT22;62797;49.740;10.154;2023-03-01T16:16:49;14.30;8.30
74364;DHT22;62797;49.740;10.154;2023-03-01T16:19:15;14.00;8.60
74364;DHT22;62797;49.740;10.154;2023-03-01T16:21:42;13.40;9.40
74364;DHT22;62797;49.740;10.154;2023-03-01T16:24:09;12.90;9.90
74364;DHT22;62797;49.740;10.154;2023-03-01T16:26:36;12.70;10.50
74364;DHT22;62797;49.740;10.154;2023-03-01T16:29:03;12.40;10.40
74364;DHT22;62797;49.740;10.154;2023-03-01T16:31:28;11.90;11.10
74364;DHT22;62797;49.740;10.154;2023-03-01T16:33:55;11.50;11.20
74364;DHT22;62797;49.740;10.154;2023-03-01T16:36:21;11.10;11.70
74364;DHT22;62797;49.740;10.154;2023-03-01T16:38:49;10.60;12.80
74364;DHT22;62797;49.740;10.154;2023-03-01T16:41:19;10.10;13.40
74364;DHT22;62797;49.740;10.154;2023-03-01T16:43:45;9.70;13.50
74364;DHT22;62797;49.740;10.154;2023-03-01T16:46:25;9.40;14.40
74364;DHT22;62797;49.740;10.154;2023-03-01T16:48:51;9.10;14.80
74364;DHT22;62797;49.740;10.154;2023-03-01T16:51:18;8.70;15.30
74364;DHT22;62797;49.740;10.154;2023-03-01T16:53:43;8.40;15.90
74364;DHT22;62797;49.740;10.154;2023-03-01T16:56:10;8.10;16.50
74364;DHT22;62797;49.740;10.154;2023-03-01T16:58:38;7.80;17.10
74364;DHT22;62797;49.740;10.154;2023-03-01T17:01:24;7.60;17.30
74364;DHT22;62797;49.740;10.154;2023-03-01T17:03:51;7.30;17.90
74364;DHT22;62797;49.740;10.154;2023-03-01T17:06:19;7.00;18.40
74364;DHT22;62797;49.740;10.154;2023-03-01T17:08:46;6.90;19.20
74364;DHT22;62797;49.740;10.154;2023-03-01T17:11:14;6.60;19.10
74364;DHT22;62797;49.740;10.154;2023-03-01T17:13:40;6.50;20.00
74364;DHT22;62797;49.740;10.154;2023-03-01T17:16:08;6.30;20.20
74364;DHT22;62797;49.740;10.154;2023-03-01T17:18:35;6.10;20.60
74364;DHT22;62797;49.740;10.154;2023-03-01T17:21:00;5.90;21.20
74364;DHT22;62797;49.740;10.154;2023-03-01T17:23:27;5.70;22.00
74364;DHT22;62797;49.740;10.154;2023-03-01T17:25:53;5.70;21.70
74364;DHT22;62797;49.740;10.154;2023-03-01T17:28:22;5.60;21.70
74364;DHT22;62797;49.740;10.154;2023-03-01T17:30:48;5.50;23.10
74364;DHT22;62797;49.740;10.154;2023-03-01T17:33:14;5.40;22.60
74364;DHT22;62797;49.740;10.154;2023-03-01T17:35:40;5.20;23.50
74364;DHT22;62797;49.740;10.154;2023-03-01T17:38:06;5.10;23.50